Time;durP1;ratioP1;P1;durP2;ratioP2;P2;SDS_P1;SDS_P2;PMS_P1;PMS_P2;Temp;Humidity;BMP_temperature;BMP_pressure;BME280_temperature;BME280_humidity;BME280_pressure;Samples;Min_cycle;Max_cycle;Signal;HPM_P1;HPM_P2
2021/12/31 00:01:32;;;;;;;;;;;;;;;12.00;63.33;101664.81;5041877;28;1784;-38
2021/12/31 00:03:58;;;;;;;;;;;;;;;11.99;63.31;101667.53;5050904;28;1598;-38
2021/12/31 00:06:24;;;;;;;;;;;;;;;11.99;63.13;101662.25;5045324;28;1019;-38
2021/12/31 00:08:51;;;;;;;;;;;;;;;11.98;63.70;101672.00;5043902;28;1742;-39
2021/12/31 00:11:17;;;;;;;;;;;;;;;11.97;63.73;101674.69;5043584;28;1480;-38
2021/12/31 00:13:44;;;;;;;;;;;;;;;11.98;63.18;101672.00;5043370;28;1911;-38
2021/12/31 00:16:11;;;;;;;;;;;;;;;11.96;63.22;101673.84;5043460;28;1550;-38
2021/12/31 00:18:38;;;;;;;;;;;;;;;11.99;63.12;101675.50;5044894;28;1480;-39
2021/12/31 00:21:05;;;;;;;;;;;;;;;11.96;63.66;101670.31;5042884;28;1080;-38
2021/12/31 00:23:31;;;;;;;;;;;;;;;11.98;63.33;101671.09;5041491;28;1824;-39
2021/12/31 00:25:57;;;;;;;;;;;;;;;12.04;62.93;101681.47;5041346;28;1711;-40
2021/12/31 00:28:24;;;;;;;;;;;;;;;12.05;63.12;101675.22;5043199;28;1763;-38
2021/12/31 00:30:53;;;;;;;;;;;;;;;12.05;62.75;101675.22;5048459;28;1811;-39
2021/12/31 00:33:22;;;;;;;;;;;;;;;12.02;63.31;101667.41;5045083;28;1906;-39
2021/12/31 00:35:48;;;;;;;;;;;;;;;12.03;63.10;101682.38;5041177;28;1586;-39
2021/12/31 00:38:15;;;;;;;;;;;;;;;11.98;63.50;101671.09;5041471;28;1830;-39
2021/12/31 00:40:41;;;;;;;;;;;;;;;11.98;63.25;101669.34;5043145;28;1476;-38
2021/12/31 00:43:10;;;;;;;;;;;;;;;11.99;62.87;101672.84;5043157;28;1551;-39
2021/12/31 00:45:41;;;;;;;;;;;;;;;11.97;63.04;101677.34;5043348;28;1795;-38
2021/12/31 00:48:08;;;;;;;;;;;;;;;11.94;63.82;101663.31;5048709;28;1127;-38
2021/12/31 00:50:36;;;;;;;;;;;;;;;11.95;63.18;101661.50;5041145;28;2121;-38
2021/12/31 00:53:02;;;;;;;;;;;;;;;11.94;62.95;101665.97;5034279;28;1970;-38
2021/12/31 00:55:29;;;;;;;;;;;;;;;12.02;62.61;101664.75;5043043;28;1569;-38
2021/12/31 00:57:55;;;;;;;;;;;;;;;12.00;62.92;101664.81;5043097;28;1408;-39
2021/12/31 01:00:22;;;;;;;;;;;;;;;12.00;62.86;101656.03;5045914;28;1377;-38
2021/12/31 01:02:48;;;;;;;;;;;;;;;12.01;63.36;101661.22;5042825;28;1060;-38
2021/12/31 01:05:15;;;;;;;;;;;;;;;12.01;62.96;101666.53;5044233;28;2013;-38
2021/12/31 01:07:43;;;;;;;;;;;;;;;12.02;63.43;101662.97;5047112;28;1880;-39
2021/12/31 01:10:13;;;;;;;;;;;;;;;11.98;62.78;101653.44;5042012;28;1592;-39
2021/12/31 01:12:39;;;;;;;;;;;;;;;12.01;63.34;101657.72;5042396;28;1556;-38
2021/12/31 01:15:09;;;;;;;;;;;;;;;12.00;63.09;101653.38;5042205;28;1965;-38
2021/12/31 01:17:46;;;;;;;;;;;;;;;12.01;63.04;101650.63;5044468;28;1059;-38
2021/12/31 01:20:14;;;;;;;;;;;;;;;11.96;63.45;101634.09;5038717;28;1810;-38
2021/12/31 01:22:42;;;;;;;;;;;;;;;11.98;62.90;101634.00;5042843;28;1521;-38
2021/12/31 01:25:09;;;;;;;;;;;;;;;12.00;63.39;101629.50;5042875;28;1630;-39
2021/12/31 01:27:36;;;;;;;;;;;;;;;12.00;63.07;101637.47;5042502;28;1688;-39
2021/12/31 01:30:03;;;;;;;;;;;;;;;11.99;62.98;101641.03;5040976;28;1424;-38
2021/12/31 01:32:31;;;;;;;;;;;;;;;11.92;63.09;101649.25;5047286;28;1076;-38
2021/12/31 01:34:57;;;;;;;;;;;;;;;11.96;63.12;101657.06;5049772;28;1902;-38
2021/12/31 01:37:24;;;;;;;;;;;;;;;11.90;63.04;101659.06;5046813;28;1623;-38
2021/12/31 01:39:52;;;;;;;;;;;;;;;11.93;63.39;101658.06;5046384;28;1742;-38
2021/12/31 01:42:24;;;;;;;;;;;;;;;11.93;63.46;101669.53;5035635;28;1768;-38
2021/12/31 01:44:56;;;;;;;;;;;;;;;11.94;63.29;101679.22;5044095;28;1591;-38
2021/12/31 01:47:33;;;;;;;;;;;;;;;11.91;63.47;101684.63;5048048;28;1047;-38
2021/12/31 01:50:04;;;;;;;;;;;;;;;11.91;63.18;101674.03;5049334;28;1563;-39
2021/12/31 01:52:31;;;;;;;;;;;;;;;11.91;63.23;101660.78;5046584;28;1659;-39
2021/12/31 01:54:59;;;;;;;;;;;;;;;11.93;63.59;101661.56;5045944;28;1902;-38
2021/12/31 01:57:25;;;;;;;;;;;;;;;12.00;62.70;101663.97;5045131;28;1420;-38
2021/12/31 01:59:52;;;;;;;;;;;;;;;12.00;63.42;101666.63;5043973;28;1854;-39
2021/12/31 02:02:19;;;;;;;;;;;;;;;11.98;63.48;101665.81;5047784;28;1067;-38
2021/12/31 02:04:46;;;;;;;;;;;;;;;11.93;62.84;101653.63;5051215;28;1833;-39
2021/12/31 02:07:12;;;;;;;;;;;;;;;11.92;63.07;101651.06;5048436;28;1476;-39
2021/12/31 02:09:46;;;;;;;;;;;;;;;11.91;63.10;101655.47;5045281;28;1005;-39
2021/12/31 02:12:14;;;;;;;;;;;;;;;11.90;64.12;101653.78;5047511;28;1075;-38
2021/12/31 02:14:40;;;;;;;;;;;;;;;11.90;63.29;101664.38;5042324;28;2007;-39
2021/12/31 02:17:09;;;;;;;;;;;;;;;11.87;63.57;101653.00;5045084;28;1975;-38
2021/12/31 02:19:35;;;;;;;;;;;;;;;11.86;63.91;101654.81;5051305;28;1660;-38
2021/12/31 02:22:03;;;;;;;;;;;;;;;11.87;63.78;101667.09;5044457;28;1698;-38
2021/12/31 02:24:31;;;;;;;;;;;;;;;11.87;63.26;101669.75;5043326;28;1538;-39
2021/12/31 02:26:58;;;;;;;;;;;;;;;11.89;63.43;101667.94;5044042;28;1413;-39
2021/12/31 02:29:25;;;;;;;;;;;;;;;11.86;63.61;101662.75;5047105;28;1177;-38
2021/12/31 02:31:52;;;;;;;;;;;;;;;11.85;63.39;101671.63;5049662;28;1882;-38
2021/12/31 02:34:18;;;;;;;;;;;;;;;11.88;63.10;101658.25;5046519;28;1910;-38
2021/12/31 02:36:45;;;;;;;;;;;;;;;11.90;63.33;101648.47;5043387;28;1428;-38
2021/12/31 02:39:12;;;;;;;;;;;;;;;11.95;63.43;101640.31;5044404;28;1266;-39
2021/12/31 02:41:39;;;;;;;;;;;;;;;11.90;62.96;101640.50;5044075;28;1554;-39
2021/12/31 02:44:05;;;;;;;;;;;;;;;11.92;62.86;101627.19;5044301;28;1079;-39
2021/12/31 02:46:32;;;;;;;;;;;;;;;11.91;63.49;101639.56;5043174;28;1657;-39
2021/12/31 02:48:58;;;;;;;;;;;;;;;11.93;63.05;101643.00;5052056;28;1614;-39
2021/12/31 02:51:25;;;;;;;;;;;;;;;11.93;63.28;101653.63;5044916;28;1607;-38
2021/12/31 02:53:53;;;;;;;;;;;;;;;11.97;62.80;101650.84;5041904;28;1906;-40
2021/12/31 02:56:21;;;;;;;;;;;;;;;11.93;63.61;101640.38;5043724;28;1084;-39
2021/12/31 02:58:48;;;;;;;;;;;;;;;11.87;63.06;101637.94;5042938;28;1987;-39
2021/12/31 03:01:14;;;;;;;;;;;;;;;11.94;63.27;101659.81;5179013;22;3543;-39
2021/12/31 03:03:41;;;;;;;;;;;;;;;11.89;62.86;101646.72;5084843;28;1599;-38
2021/12/31 03:06:08;;;;;;;;;;;;;;;11.90;63.32;101653.78;5086018;28;1158;-38
2021/12/31 03:08:37;;;;;;;;;;;;;;;11.90;63.04;101664.38;5080966;28;1889;-39
2021/12/31 03:11:04;;;;;;;;;;;;;;;11.89;63.52;101677.69;5084243;28;1670;-38
2021/12/31 03:13:33;;;;;;;;;;;;;;;11.88;63.49;101687.41;5086821;28;1992;-38
2021/12/31 03:16:00;;;;;;;;;;;;;;;11.85;63.85;101686.66;5074750;28;1784;-38
2021/12/31 03:18:27;;;;;;;;;;;;;;;11.87;63.14;101685.66;5086334;28;983;-38
2021/12/31 03:21:01;;;;;;;;;;;;;;;11.90;62.67;101658.22;5082715;28;1586;-38
2021/12/31 03:23:29;;;;;;;;;;;;;;;11.93;63.19;101677.47;5082452;28;1921;-38
2021/12/31 03:25:55;;;;;;;;;;;;;;;11.94;63.19;101684.50;5088218;28;1810;-38
2021/12/31 03:28:22;;;;;;;;;;;;;;;11.92;62.81;101672.25;5079777;28;1595;-38
2021/12/31 03:30:50;;;;;;;;;;;;;;;11.94;63.32;101691.59;5084314;28;1471;-38
2021/12/31 03:33:16;;;;;;;;;;;;;;;11.90;63.05;101668.81;5091058;28;1083;-38
2021/12/31 03:35:43;;;;;;;;;;;;;;;11.87;63.58;101664.47;5082032;28;1898;-38
2021/12/31 03:38:10;;;;;;;;;;;;;;;11.81;63.89;101666.53;5083282;28;1728;-38
2021/12/31 03:40:36;;;;;;;;;;;;;;;11.83;63.47;101680.56;5084484;28;1605;-38
2021/12/31 03:43:02;;;;;;;;;;;;;;;11.84;63.79;101695.56;5084498;28;1442;-39
2021/12/31 03:45:29;;;;;;;;;;;;;;;11.79;63.39;101677.19;5083217;28;1819;-38
2021/12/31 03:47:57;;;;;;;;;;;;;;;11.81;63.65;101691.22;5081036;28;1075;-38
2021/12/31 03:50:23;;;;;;;;;;;;;;;11.81;63.60;101695.69;5083958;28;1923;-38
2021/12/31 03:52:50;;;;;;;;;;;;;;;11.81;63.73;101696.53;5083716;28;1841;-38
2021/12/31 03:55:16;;;;;;;;;;;;;;;11.79;63.64;101698.38;5082449;28;1985;-39
2021/12/31 03:57:42;;;;;;;;;;;;;;;11.84;63.43;101711.47;5082265;28;1657;-38
2021/12/31 04:00:11;;;;;;;;;;;;;;;11.78;64.03;101701.97;5084254;28;1602;-38
2021/12/31 04:02:37;;;;;;;;;;;;;;;11.81;63.57;101690.38;5082684;28;1278;-38
2021/12/31 04:05:06;;;;;;;;;;;;;;;11.82;63.77;101686.81;5080590;28;1912;-38
2021/12/31 04:07:32;;;;;;;;;;;;;;;11.88;62.93;101705.94;5080059;28;1798;-38
2021/12/31 04:09:59;;;;;;;;;;;;;;;11.91;62.84;101702.31;5084004;28;1571;-39
2021/12/31 04:12:25;;;;;;;;;;;;;;;11.86;63.40;101683.94;5085574;28;2063;-39
2021/12/31 04:14:52;;;;;;;;;;;;;;;11.86;63.43;101688.41;5085774;28;1942;-38
2021/12/31 04:17:18;;;;;;;;;;;;;;;11.80;63.58;101668.31;5080533;28;1943;-38
2021/12/31 04:19:49;;;;;;;;;;;;;;;11.84;63.51;101671.69;5086213;28;1621;-38
2021/12/31 04:22:17;;;;;;;;;;;;;;;11.84;63.56;101671.69;5085549;28;1505;-39
2021/12/31 04:24:53;;;;;;;;;;;;;;;11.83;63.54;101680.56;5082144;28;1706;-38
2021/12/31 04:27:20;;;;;;;;;;;;;;;11.80;63.67;101675.38;5071898;28;1723;-38
2021/12/31 04:29:51;;;;;;;;;;;;;;;11.79;63.62;101685.13;5083978;28;1493;-39
2021/12/31 04:32:17;;;;;;;;;;;;;;;11.81;64.00;101685.06;5084851;28;1079;-38
2021/12/31 04:34:44;;;;;;;;;;;;;;;11.79;64.00;101687.78;5088619;28;1981;-38
2021/12/31 04:37:10;;;;;;;;;;;;;;;11.79;63.30;101682.47;5080353;28;1709;-38
2021/12/31 04:39:38;;;;;;;;;;;;;;;11.77;63.18;101663.13;5085001;28;1653;-38
2021/12/31 04:42:05;;;;;;;;;;;;;;;11.79;63.04;101645.38;5085034;28;1755;-39
2021/12/31 04:44:31;;;;;;;;;;;;;;;11.80;63.00;101657.72;5083624;28;1754;-39
2021/12/31 04:46:57;;;;;;;;;;;;;;;11.86;62.81;101673.34;5083897;28;1081;-38
2021/12/31 04:49:24;;;;;;;;;;;;;;;11.86;63.46;101646.84;5077717;28;1681;-38
2021/12/31 04:51:50;;;;;;;;;;;;;;;11.88;63.24;101655.59;5081566;28;1734;-39
2021/12/31 04:54:17;;;;;;;;;;;;;;;11.86;62.64;101646.00;5083342;28;1906;-38
2021/12/31 04:56:45;;;;;;;;;;;;;;;11.87;63.45;101653.84;5083159;28;1470;-39
2021/12/31 04:59:11;;;;;;;;;;;;;;;11.83;63.27;101646.97;5080410;28;1099;-38
2021/12/31 05:01:38;;;;;;;;;;;;;;;11.86;62.91;101651.28;5089614;28;1609;-38
2021/12/31 05:04:05;;;;;;;;;;;;;;;11.83;62.92;101646.13;5081480;28;1459;-38
2021/12/31 05:06:32;;;;;;;;;;;;;;;11.81;63.43;101650.63;5087444;28;1174;-38
2021/12/31 05:08:58;;;;;;;;;;;;;;;11.84;63.78;101656.66;5087562;28;1626;-38
2021/12/31 05:11:25;;;;;;;;;;;;;;;11.82;63.71;101662.97;5088975;28;1804;-38
2021/12/31 05:13:53;;;;;;;;;;;;;;;11.78;63.31;101659.56;5086841;28;1495;-38
2021/12/31 05:16:19;;;;;;;;;;;;;;;11.74;63.71;101644.75;5086827;28;1909;-38
2021/12/31 05:18:46;;;;;;;;;;;;;;;11.80;63.02;101654.19;5087934;28;1737;-40
2021/12/31 05:21:12;;;;;;;;;;;;;;;11.78;63.60;101664.88;5087724;28;1659;-39
2021/12/31 05:23:39;;;;;;;;;;;;;;;11.74;63.35;101652.69;5085286;28;1073;-38
2021/12/31 05:26:05;;;;;;;;;;;;;;;11.77;63.95;101660.50;5090011;28;1851;-38
2021/12/31 05:28:32;;;;;;;;;;;;;;;11.73;63.01;101667.69;5082255;28;1688;-39
2021/12/31 05:31:00;;;;;;;;;;;;;;;11.77;63.70;101678.19;5087076;28;1561;-38
2021/12/31 05:33:26;;;;;;;;;;;;;;;11.81;63.60;101674.47;5094832;28;1135;-38
2021/12/31 05:35:56;;;;;;;;;;;;;;;11.82;63.42;101682.38;5088964;28;1984;-38
2021/12/31 05:38:23;;;;;;;;;;;;;;;11.81;63.17;101674.47;5088520;28;1843;-39
2021/12/31 05:40:49;;;;;;;;;;;;;;;11.81;63.35;101669.16;5087244;28;1946;-38
2021/12/31 05:43:15;;;;;;;;;;;;;;;11.79;63.42;101678.97;5086325;28;1641;-39
2021/12/31 05:45:42;;;;;;;;;;;;;;;11.78;63.56;101680.78;5086207;28;1918;-38
2021/12/31 05:48:10;;;;;;;;;;;;;;;11.78;63.62;101680.78;5081663;28;1073;-39
2021/12/31 05:50:36;;;;;;;;;;;;;;;11.74;63.55;101665.94;5081814;28;1787;-38
2021/12/31 05:53:03;;;;;;;;;;;;;;;11.76;63.39;101677.34;5081210;28;1864;-39
2021/12/31 05:55:29;;;;;;;;;;;;;;;11.74;63.15;101689.78;5083384;28;1973;-39
2021/12/31 05:57:56;;;;;;;;;;;;;;;11.71;63.12;101679.31;5086182;28;1425;-38
2021/12/31 06:00:23;;;;;;;;;;;;;;;11.75;63.63;101680.88;5084581;28;1765;-38
2021/12/31 06:02:49;;;;;;;;;;;;;;;11.75;63.07;101678.25;5083487;28;1288;-38
2021/12/31 06:05:17;;;;;;;;;;;;;;;11.72;63.56;101675.75;5084542;28;1862;-38
2021/12/31 06:07:44;;;;;;;;;;;;;;;11.71;63.98;101684.59;5080498;28;1562;-38
2021/12/31 06:10:10;;;;;;;;;;;;;;;11.72;62.97;101704.88;5085753;28;1699;-38
2021/12/31 06:12:37;;;;;;;;;;;;;;;11.68;62.99;101703.31;5086421;28;1602;-39
2021/12/31 06:15:05;;;;;;;;;;;;;;;11.71;63.75;101700.50;5084946;28;1898;-38
2021/12/31 06:17:32;;;;;;;;;;;;;;;11.77;63.81;101700.25;5086753;28;2014;-38
2021/12/31 06:19:58;;;;;;;;;;;;;;;11.77;63.48;101710.84;5082375;28;1852;-38
2021/12/31 06:22:26;;;;;;;;;;;;;;;11.73;63.78;101703.94;5086725;28;1439;-38
2021/12/31 06:24:53;;;;;;;;;;;;;;;11.74;63.59;101703.03;5083236;28;1796;-38
2021/12/31 06:27:20;;;;;;;;;;;;;;;11.73;63.82;101709.25;5074301;28;1703;-38
2021/12/31 06:29:46;;;;;;;;;;;;;;;11.77;63.90;101710.84;5086348;28;1949;-38
2021/12/31 06:32:13;;;;;;;;;;;;;;;11.72;63.85;101696.94;5087362;28;999;-38
2021/12/31 06:34:39;;;;;;;;;;;;;;;11.76;63.61;101693.22;5089790;28;2034;-38
2021/12/31 06:37:06;;;;;;;;;;;;;;;11.78;63.21;101699.31;5087833;28;1572;-38
2021/12/31 06:39:35;;;;;;;;;;;;;;;11.79;63.07;101708.97;5083495;28;1836;-38
2021/12/31 06:42:03;;;;;;;;;;;;;;;11.76;63.53;101698.53;5087395;28;1685;-39
2021/12/31 06:44:30;;;;;;;;;;;;;;;11.77;63.13;101694.94;5081603;28;1617;-39
2021/12/31 06:46:56;;;;;;;;;;;;;;;11.78;63.32;101701.97;5086171;28;1080;-38
2021/12/31 06:49:23;;;;;;;;;;;;;;;11.78;63.37;101701.97;5078253;28;1814;-38
2021/12/31 06:51:49;;;;;;;;;;;;;;;11.77;63.70;101705.53;5086905;28;1656;-38
2021/12/31 06:54:15;;;;;;;;;;;;;;;11.77;62.91;101705.53;5086081;28;1746;-38
2021/12/31 06:56:43;;;;;;;;;;;;;;;11.73;63.15;101703.94;5085385;28;1988;-38
2021/12/31 06:59:10;;;;;;;;;;;;;;;11.76;63.77;101698.53;5084312;28;1321;-40
2021/12/31 07:01:36;;;;;;;;;;;;;;;11.77;63.40;101696.72;5083160;28;1299;-38
2021/12/31 07:04:03;;;;;;;;;;;;;;;11.78;62.82;101694.03;5093714;28;2010;-39
2021/12/31 07:06:29;;;;;;;;;;;;;;;11.77;63.39;101694.94;5084279;28;1084;-38
2021/12/31 07:08:56;;;;;;;;;;;;;;;11.80;62.77;101700.13;5083732;28;1834;-38
2021/12/31 07:11:23;;;;;;;;;;;;;;;11.76;63.65;101687.94;5082977;28;2053;-38
2021/12/31 07:13:50;;;;;;;;;;;;;;;11.78;62.76;101701.09;5084892;28;1481;-38
2021/12/31 07:16:17;;;;;;;;;;;;;;;11.77;63.15;101699.38;5082948;28;1917;-39
2021/12/31 07:18:43;;;;;;;;;;;;;;;11.75;63.50;101688.84;5083077;28;1785;-38
2021/12/31 07:21:10;;;;;;;;;;;;;;;11.73;63.38;101678.31;5085864;28;1134;-39
2021/12/31 07:23:37;;;;;;;;;;;;;;;11.73;62.97;101693.34;5082986;28;1201;-38
2021/12/31 07:26:03;;;;;;;;;;;;;;;11.72;63.51;101715.50;5082732;28;1794;-38
2021/12/31 07:28:30;;;;;;;;;;;;;;;11.71;63.70;101704.00;5088081;28;1835;-38
2021/12/31 07:30:57;;;;;;;;;;;;;;;11.74;63.96;101709.19;5084020;28;1675;-38
2021/12/31 07:33:25;;;;;;;;;;;;;;;11.70;63.49;101698.78;5077255;28;1087;-38
2021/12/31 07:35:53;;;;;;;;;;;;;;;11.72;63.13;101697.78;5085805;28;1973;-38
2021/12/31 07:38:21;;;;;;;;;;;;;;;11.70;63.69;101690.84;5080287;28;1762;-39
2021/12/31 07:40:47;;;;;;;;;;;;;;;11.69;63.71;101675.84;5088210;28;1776;-38
2021/12/31 07:43:14;;;;;;;;;;;;;;;11.72;63.12;101681.03;5080954;28;1525;-38
2021/12/31 07:45:41;;;;;;;;;;;;;;;11.74;63.29;101679.19;5085250;28;1820;-38
2021/12/31 07:48:09;;;;;;;;;;;;;;;11.77;63.50;101679.03;5079546;28;1091;-39
2021/12/31 07:50:36;;;;;;;;;;;;;;;11.73;63.69;101683.59;5085251;28;1873;-38
2021/12/31 07:53:03;;;;;;;;;;;;;;;11.76;63.46;101677.34;5083687;28;1683;-38
2021/12/31 07:55:29;;;;;;;;;;;;;;;11.78;63.18;101670.19;5081335;28;1914;-38
2021/12/31 07:57:56;;;;;;;;;;;;;;;11.74;63.10;101658.84;5084175;28;1652;-39
2021/12/31 08:00:22;;;;;;;;;;;;;;;11.77;62.86;101657.84;5082433;28;1586;-39
2021/12/31 08:02:50;;;;;;;;;;;;;;;11.76;63.38;101653.47;5081483;28;1889;-38
2021/12/31 08:05:17;;;;;;;;;;;;;;;11.77;62.71;101663.13;5079581;28;1661;-38
2021/12/31 08:07:44;;;;;;;;;;;;;;;11.74;63.63;101650.03;5087856;28;1447;-38
2021/12/31 08:10:10;;;;;;;;;;;;;;;11.74;63.18;101653.53;5083338;28;1682;-38
2021/12/31 08:12:37;;;;;;;;;;;;;;;11.72;63.04;101641.28;5082825;28;1395;-40
2021/12/31 08:15:03;;;;;;;;;;;;;;;11.73;63.63;101645.66;5083010;28;1910;-38
2021/12/31 08:17:30;;;;;;;;;;;;;;;11.70;63.58;101636.06;5085506;28;1872;-39
2021/12/31 08:19:56;;;;;;;;;;;;;;;11.70;63.88;101630.75;5079021;28;1629;-39
2021/12/31 08:22:24;;;;;;;;;;;;;;;11.72;63.08;101638.66;5082150;28;1695;-39
2021/12/31 08:24:51;;;;;;;;;;;;;;;11.71;62.99;101639.56;5083697;28;1669;-38
2021/12/31 08:27:18;;;;;;;;;;;;;;;11.72;63.85;101649.25;5085302;28;1655;-38
2021/12/31 08:29:44;;;;;;;;;;;;;;;11.75;63.95;101654.41;5082724;28;1058;-38
2021/12/31 08:32:10;;;;;;;;;;;;;;;11.77;63.46;101647.25;5079905;28;1927;-39
2021/12/31 08:34:37;;;;;;;;;;;;;;;11.81;63.32;101647.97;5081832;28;1659;-39
2021/12/31 08:37:04;;;;;;;;;;;;;;;11.82;63.33;101634.66;5084202;28;1901;-38
2021/12/31 08:39:31;;;;;;;;;;;;;;;11.84;62.72;101661.97;5084751;28;1791;-38
2021/12/31 08:42:00;;;;;;;;;;;;;;;11.85;63.23;101655.72;5084521;28;1676;-39
2021/12/31 08:44:26;;;;;;;;;;;;;;;11.82;62.59;101650.56;5083117;28;1663;-40
2021/12/31 08:46:53;;;;;;;;;;;;;;;11.88;63.43;101660.03;5084573;28;1088;-39
2021/12/31 08:49:19;;;;;;;;;;;;;;;11.85;63.60;101660.16;5077094;28;1890;-38
2021/12/31 08:51:46;;;;;;;;;;;;;;;11.82;63.49;101650.56;5085493;28;1459;-38
2021/12/31 08:54:12;;;;;;;;;;;;;;;11.78;63.38;101642.78;5080632;28;1664;-38
2021/12/31 08:56:41;;;;;;;;;;;;;;;11.77;63.38;101660.50;5083094;28;1901;-39
2021/12/31 08:59:08;;;;;;;;;;;;;;;11.74;63.10;101642.94;5082964;28;1727;-38
2021/12/31 09:01:36;;;;;;;;;;;;;;;11.73;62.84;101635.91;5083498;28;1742;-39
2021/12/31 09:04:03;;;;;;;;;;;;;;;11.74;63.74;101626.19;5084272;28;1087;-38
2021/12/31 09:06:30;;;;;;;;;;;;;;;11.72;63.61;101634.19;5084516;28;1815;-38
2021/12/31 09:08:56;;;;;;;;;;;;;;;11.72;63.03;101628.91;5081734;28;1862;-39
2021/12/31 09:11:23;;;;;;;;;;;;;;;11.72;63.87;101620.09;5081285;28;1557;-38
2021/12/31 09:13:54;;;;;;;;;;;;;;;11.79;63.69;101626.84;5082516;28;1716;-38
2021/12/31 09:16:20;;;;;;;;;;;;;;;11.81;63.61;101635.56;5082550;28;1977;-39
2021/12/31 09:18:47;;;;;;;;;;;;;;;11.78;63.62;101617.19;5081546;28;1886;-39
2021/12/31 09:21:17;;;;;;;;;;;;;;;11.84;62.85;101645.19;5083999;28;1844;-39
2021/12/31 09:23:43;;;;;;;;;;;;;;;11.81;62.87;101640.88;5083425;28;1003;-38
2021/12/31 09:26:10;;;;;;;;;;;;;;;11.75;63.60;101638.50;5084349;28;1950;-38
2021/12/31 09:28:36;;;;;;;;;;;;;;;11.76;63.00;101645.53;5084144;28;1810;-38
2021/12/31 09:31:07;;;;;;;;;;;;;;;11.74;63.52;101642.09;5078573;28;1501;-38
2021/12/31 09:33:34;;;;;;;;;;;;;;;11.74;63.18;101631.50;5091203;28;1488;-39
2021/12/31 09:36:00;;;;;;;;;;;;;;;11.73;63.65;101614.72;5081111;28;1909;-39
2021/12/31 09:38:27;;;;;;;;;;;;;;;11.77;63.24;101622.53;5085385;28;1884;-38
2021/12/31 09:40:54;;;;;;;;;;;;;;;11.78;63.59;101622.47;5078363;28;1706;-38
2021/12/31 09:43:21;;;;;;;;;;;;;;;11.84;63.67;101631.94;5082866;28;1422;-38
2021/12/31 09:45:50;;;;;;;;;;;;;;;11.89;63.48;101625.53;5082546;28;1987;-38
2021/12/31 09:48:19;;;;;;;;;;;;;;;11.90;63.32;101621.97;5089575;28;1003;-38
2021/12/31 09:50:47;;;;;;;;;;;;;;;11.89;63.67;101609.63;5085818;28;1789;-38
2021/12/31 09:53:14;;;;;;;;;;;;;;;11.89;62.90;101601.66;5086096;28;1908;-38
2021/12/31 09:55:41;;;;;;;;;;;;;;;12.01;62.96;101612.66;5085934;28;1973;-38
2021/12/31 09:58:10;;;;;;;;;;;;;;;12.03;63.13;101610.81;5083682;28;1476;-38
2021/12/31 10:00:37;;;;;;;;;;;;;;;12.04;62.71;101594.84;5086873;28;1695;-38
2021/12/31 10:03:13;;;;;;;;;;;;;;;12.08;62.71;101583.16;5079706;28;1349;-38
2021/12/31 10:05:44;;;;;;;;;;;;;;;12.10;62.65;101591.06;5087900;28;1878;-38
2021/12/31 10:08:18;;;;;;;;;;;;;;;12.15;62.93;101599.63;5079033;28;1769;-38
2021/12/31 10:10:45;;;;;;;;;;;;;;;12.13;62.83;101590.88;5077156;28;1581;-38
2021/12/31 10:13:12;;;;;;;;;;;;;;;12.12;62.82;101576.78;5084140;28;1722;-38
2021/12/31 10:15:39;;;;;;;;;;;;;;;12.13;62.71;101588.25;5086068;28;1905;-38
2021/12/31 10:18:09;;;;;;;;;;;;;;;12.13;62.68;101582.94;5078314;28;1143;-38
2021/12/31 10:20:46;;;;;;;;;;;;;;;12.10;62.80;101585.75;5089933;28;1826;-38
2021/12/31 10:23:16;;;;;;;;;;;;;;;12.13;62.57;101596.19;5083762;28;1926;-38
2021/12/31 10:25:42;;;;;;;;;;;;;;;12.13;63.12;101588.25;5085471;28;1862;-39
2021/12/31 10:28:09;;;;;;;;;;;;;;;12.11;63.11;101585.66;5083564;28;1480;-38
2021/12/31 10:30:36;;;;;;;;;;;;;;;12.10;62.57;101569.84;5092750;28;1002;-38
2021/12/31 10:33:02;;;;;;;;;;;;;;;12.10;62.96;101567.19;5087897;28;1942;-38
2021/12/31 10:35:37;;;;;;;;;;;;;;;12.09;62.53;101557.50;5081123;28;1694;-38
2021/12/31 10:38:06;;;;;;;;;;;;;;;12.05;63.11;101546.16;5080967;28;1973;-38
2021/12/31 10:40:36;;;;;;;;;;;;;;;12.06;63.12;101541.75;5082819;28;1515;-38
2021/12/31 10:43:06;;;;;;;;;;;;;;;12.05;63.19;101527.63;5086459;28;1800;-38
2021/12/31 10:45:33;;;;;;;;;;;;;;;12.07;63.22;101531.06;5085440;28;1554;-38
2021/12/31 10:48:05;;;;;;;;;;;;;;;12.07;62.74;101527.56;5089939;28;1046;-39
2021/12/31 10:50:32;;;;;;;;;;;;;;;12.07;62.77;101528.41;5089533;28;1966;-39
2021/12/31 10:53:01;;;;;;;;;;;;;;;12.08;62.73;101523.97;5082364;28;1738;-38
2021/12/31 10:55:30;;;;;;;;;;;;;;;12.08;62.98;101529.28;5087342;28;1747;-39
2021/12/31 10:57:59;;;;;;;;;;;;;;;12.05;63.00;101518.81;5084484;28;1901;-39
2021/12/31 11:00:26;;;;;;;;;;;;;;;12.05;62.95;101530.25;5084479;28;1683;-38
2021/12/31 11:02:53;;;;;;;;;;;;;;;12.03;63.05;101532.13;5082589;28;1341;-38
2021/12/31 11:05:20;;;;;;;;;;;;;;;12.02;63.16;101527.78;5084515;28;1781;-38
2021/12/31 11:07:47;;;;;;;;;;;;;;;11.99;63.38;101513.78;5079867;28;1682;-39
2021/12/31 11:10:14;;;;;;;;;;;;;;;11.94;62.95;101495.47;5084837;28;1909;-39
2021/12/31 11:12:43;;;;;;;;;;;;;;;11.94;63.13;101501.63;5084692;28;1479;-39
2021/12/31 11:15:11;;;;;;;;;;;;;;;11.92;63.47;101506.13;5081764;28;1658;-40
2021/12/31 11:17:38;;;;;;;;;;;;;;;11.93;63.81;101526.38;5082934;28;1913;-38
2021/12/31 11:20:05;;;;;;;;;;;;;;;11.91;63.37;101515.00;5087170;28;1641;-39
2021/12/31 11:22:32;;;;;;;;;;;;;;;11.91;63.04;101524.75;5085076;28;1479;-38
2021/12/31 11:25:17;;;;;;;;;;;;;;;11.90;63.75;101529.19;5084536;28;1448;-39
2021/12/31 11:27:45;;;;;;;;;;;;;;;11.92;63.52;101532.63;5084834;28;1487;-38
2021/12/31 11:30:25;;;;;;;;;;;;;;;11.93;63.37;101515.78;5081934;28;1726;-39
2021/12/31 11:32:56;;;;;;;;;;;;;;;12.02;62.82;101518.97;5080665;28;1007;-38
2021/12/31 11:35:35;;;;;;;;;;;;;;;11.97;63.64;101516.50;5088615;28;1907;-38
2021/12/31 11:38:03;;;;;;;;;;;;;;;11.99;63.19;101522.59;5080045;28;1963;-38
2021/12/31 11:40:31;;;;;;;;;;;;;;;11.96;63.41;101520.09;5084605;28;1966;-38
2021/12/31 11:43:12;;;;;;;;;;;;;;;11.94;63.37;101533.44;5084537;28;1497;-38
2021/12/31 11:45:40;;;;;;;;;;;;;;;11.94;63.87;101525.47;5082993;28;1667;-38
2021/12/31 11:48:33;;;;;;;;;;;;;;;12.02;63.40;101537.53;5079851;28;1135;-38
2021/12/31 11:51:04;;;;;;;;;;;;;;;11.99;63.26;101535.00;5082268;28;1475;-38
2021/12/31 11:53:31;;;;;;;;;;;;;;;12.00;62.99;101531.44;5082003;28;1652;-38
2021/12/31 11:55:58;;;;;;;;;;;;;;;12.04;63.06;101517.97;5082269;28;2095;-39
2021/12/31 11:58:37;;;;;;;;;;;;;;;12.03;63.38;101515.38;5074959;28;1902;-39
2021/12/31 12:01:19;;;;;;;;;;;;;;;12.07;63.06;101532.84;5074981;28;1644;-38
2021/12/31 12:03:46;;;;;;;;;;;;;;;12.00;62.78;101510.22;5056656;28;2509;-38
2021/12/31 12:06:46;;;;;;;;;;;;;;;12.08;62.89;101516.03;5081472;28;1078;-38
2021/12/31 12:09:12;;;;;;;;;;;;;;;12.04;62.97;101523.25;5088652;28;2145;-38
2021/12/31 12:11:57;;;;;;;;;;;;;;;12.03;63.49;101512.72;5083141;28;1671;-38
2021/12/31 12:14:29;;;;;;;;;;;;;;;12.04;63.38;101525.06;5079228;28;1906;-38
2021/12/31 12:16:57;;;;;;;;;;;;;;;12.01;63.32;101520.75;5080089;28;1977;-39
2021/12/31 12:19:44;;;;;;;;;;;;;;;12.01;63.81;101501.31;5088100;28;1490;-39
2021/12/31 12:22:23;;;;;;;;;;;;;;;12.02;63.34;101498.63;5073275;28;1790;-38
2021/12/31 12:24:50;;;;;;;;;;;;;;;12.05;63.65;101502.91;5075854;28;1484;-38
2021/12/31 12:27:17;;;;;;;;;;;;;;;12.03;63.17;101497.66;5081273;28;1656;-38
2021/12/31 12:29:44;;;;;;;;;;;;;;;12.03;63.02;101489.72;5082502;28;1130;-38
2021/12/31 12:32:11;;;;;;;;;;;;;;;12.05;63.50;101492.28;5078875;28;1559;-38
2021/12/31 12:34:39;;;;;;;;;;;;;;;12.02;63.75;101481.84;5084885;28;1546;-39
2021/12/31 12:37:07;;;;;;;;;;;;;;;12.01;63.84;101480.13;5076403;28;2007;-38
2021/12/31 12:39:35;;;;;;;;;;;;;;;12.00;62.99;101465.16;5079292;28;1883;-38
2021/12/31 12:42:01;;;;;;;;;;;;;;;12.01;63.07;101469.53;5073462;28;1705;-38
2021/12/31 12:44:29;;;;;;;;;;;;;;;12.01;62.97;101464.22;5081370;28;1487;-39
2021/12/31 12:46:57;;;;;;;;;;;;;;;11.98;63.28;101449.34;5073644;28;1019;-38
2021/12/31 12:49:27;;;;;;;;;;;;;;;11.99;62.68;101442.22;5075333;28;1386;-38
2021/12/31 12:52:10;;;;;;;;;;;;;;;11.99;63.35;101443.06;5087698;28;1633;-39